createdAt,value
2022-08-03T00:02:33.091Z,63.56
2022-08-03T00:05:37.090Z,64.37
2022-08-03T00:08:40.376Z,64.76
2022-08-03T00:11:43.454Z,64.87
2022-08-03T00:14:46.147Z,64.90
2022-08-03T00:17:53.029Z,64.77
2022-08-03T00:20:56.725Z,64.68
2022-08-03T00:23:59.706Z,64.69
2022-08-03T00:27:02.525Z,64.85
2022-08-03T00:30:06.184Z,65.19
2022-08-03T00:33:10.384Z,65.66
2022-08-03T00:36:13.629Z,65.69
2022-08-03T00:39:16.231Z,66.64
2022-08-03T00:42:19.216Z,66.02
2022-08-03T00:45:24.813Z,67.05
2022-08-03T00:48:32.834Z,66.16
2022-08-03T00:51:36.430Z,65.97
2022-08-03T00:54:40.120Z,66.28
2022-08-03T00:57:43.647Z,66.13
2022-08-03T01:00:47.023Z,66.10
2022-08-03T01:03:49.598Z,66.02
2022-08-03T01:07:40.330Z,66.80
2022-08-03T01:10:57.340Z,66.10
2022-08-03T01:14:18.279Z,68.74
2022-08-03T01:17:29.204Z,68.67
2022-08-03T01:20:35.576Z,69.32
2022-08-03T01:23:53.376Z,70.98
2022-08-03T01:27:06.302Z,69.20
2022-08-03T01:30:12.359Z,69.89
2022-08-03T01:33:26.466Z,69.29
2022-08-03T01:36:36.457Z,69.42
2022-08-03T01:39:42.245Z,70.30
2022-08-03T01:42:46.534Z,70.68
2022-08-03T01:45:51.307Z,71.46
2022-08-03T01:48:56.398Z,70.76
2022-08-03T01:52:04.520Z,69.34
2022-08-03T01:55:10.021Z,69.72
2022-08-03T01:58:19.953Z,69.09
2022-08-03T02:01:24.519Z,68.98
2022-08-03T02:04:28.774Z,69.82
2022-08-03T02:07:33.430Z,70.56
2022-08-03T02:10:38.034Z,70.18
2022-08-03T02:13:42.147Z,69.59
2022-08-03T02:16:46.138Z,69.67
2022-08-03T02:19:51.789Z,70.84
2022-08-03T02:22:55.402Z,72.08
2022-08-03T02:26:02.490Z,72.60
2022-08-03T02:29:13.805Z,73.35
2022-08-03T02:32:24.243Z,72.58
2022-08-03T02:35:29.760Z,72.62
2022-08-03T02:38:36.095Z,73.35
2022-08-03T02:41:46.515Z,73.58
2022-08-03T02:44:54.212Z,72.86
2022-08-03T02:48:02.117Z,74.08
2022-08-03T02:51:05.755Z,73.98
2022-08-03T02:54:10.221Z,72.91
2022-08-03T02:57:15.067Z,72.36
2022-08-03T03:00:27.253Z,72.27
2022-08-03T03:03:40.000Z,72.19
2022-08-03T03:06:49.599Z,73.79
2022-08-03T03:09:53.484Z,73.46
2022-08-03T03:12:58.173Z,72.87
2022-08-03T03:16:03.297Z,71.50
2022-08-03T03:19:08.046Z,72.03
2022-08-03T03:22:11.151Z,71.44
2022-08-03T03:25:14.392Z,72.24
2022-08-03T03:28:17.509Z,73.07
2022-08-03T03:31:20.515Z,73.46
2022-08-03T03:34:24.145Z,73.55
2022-08-03T03:37:27.439Z,73.59
2022-08-03T03:40:31.165Z,74.20
2022-08-03T03:43:34.170Z,74.19
2022-08-03T03:46:39.033Z,74.55
2022-08-03T03:49:42.971Z,74.38
2022-08-03T03:52:46.387Z,74.66
2022-08-03T03:55:59.388Z,75.01
2022-08-03T03:59:05.678Z,75.01
2022-08-03T04:02:10.461Z,74.45
2022-08-03T04:05:33.614Z,74.72
2022-08-03T04:08:55.047Z,73.52
2022-08-03T04:12:01.854Z,73.29
2022-08-03T04:15:05.921Z,72.27
2022-08-03T04:18:13.951Z,71.09
2022-08-03T04:21:19.890Z,69.13
2022-08-03T04:24:26.898Z,69.00
2022-08-03T04:27:35.083Z,69.17
2022-08-03T04:30:40.249Z,68.21
2022-08-03T04:33:45.301Z,67.38
2022-08-03T04:36:52.957Z,67.02
2022-08-03T04:39:58.675Z,64.47
2022-08-03T04:43:03.017Z,65.33
2022-08-03T04:46:07.404Z,63.14
2022-08-03T04:49:10.482Z,61.75
2022-08-03T04:52:14.523Z,60.67
2022-08-03T04:55:30.515Z,59.37
2022-08-03T04:58:33.598Z,59.63
2022-08-03T05:01:36.732Z,58.31
2022-08-03T05:04:41.616Z,57.24
2022-08-03T05:07:44.880Z,57.41
2022-08-03T05:10:48.030Z,56.71
2022-08-03T05:13:51.021Z,55.94
2022-08-03T05:16:53.548Z,56.31
2022-08-03T05:19:56.948Z,55.20
2022-08-03T05:23:01.618Z,55.12
2022-08-03T05:26:04.980Z,54.91
2022-08-03T05:29:08.322Z,55.50
2022-08-03T05:32:11.221Z,52.31
2022-08-03T05:36:02.769Z,51.52
2022-08-03T05:38:37.206Z,51.28
2022-08-03T05:41:40.385Z,51.15
2022-08-03T05:44:46.670Z,50.12
2022-08-03T05:47:50.972Z,49.68
2022-08-03T05:50:54.948Z,50.42
2022-08-03T05:53:57.947Z,48.37
2022-08-03T05:57:01.089Z,48.42
2022-08-03T06:00:09.931Z,47.91
2022-08-03T06:03:14.526Z,47.80
2022-08-03T06:06:17.696Z,47.54
2022-08-03T06:09:20.723Z,46.48
2022-08-03T06:12:23.600Z,44.80
2022-08-03T06:15:26.211Z,47.12
2022-08-03T06:18:29.121Z,46.74
2022-08-03T06:21:31.716Z,47.84
2022-08-03T06:24:34.756Z,45.72
2022-08-03T06:27:40.145Z,45.13
2022-08-03T06:30:43.212Z,41.87
2022-08-03T06:34:30.401Z,42.55
2022-08-03T06:37:08.717Z,42.11
2022-08-03T06:40:16.453Z,41.96
2022-08-03T06:43:27.520Z,39.84
2022-08-03T06:46:30.241Z,41.27
2022-08-03T06:49:33.130Z,39.79
2022-08-03T06:52:37.576Z,40.41
2022-08-03T06:55:42.537Z,39.54
2022-08-03T06:58:47.046Z,38.61
2022-08-03T07:01:50.580Z,38.81
2022-08-03T07:04:53.277Z,39.55
2022-08-03T07:07:57.746Z,38.44
2022-08-03T07:11:00.432Z,40.18
2022-08-03T07:14:04.344Z,41.50
2022-08-03T07:17:11.609Z,38.90
2022-08-03T07:20:15.342Z,36.55
2022-08-03T07:23:18.864Z,37.63
2022-08-03T07:26:22.206Z,37.86
2022-08-03T07:29:25.106Z,39.14
2022-08-03T07:32:31.713Z,37.20
2022-08-03T07:35:34.464Z,35.00
2022-08-03T07:38:37.738Z,34.97
2022-08-03T07:41:41.384Z,35.76
2022-08-03T07:44:44.776Z,37.04
2022-08-03T07:47:53.733Z,37.10
2022-08-03T07:50:57.230Z,35.22
2022-08-03T07:54:00.974Z,37.61
2022-08-03T07:57:04.207Z,35.17
2022-08-03T08:00:14.055Z,34.44
2022-08-03T08:03:17.622Z,34.00
2022-08-03T08:06:20.868Z,33.20
2022-08-03T08:09:23.873Z,35.20
2022-08-03T08:12:26.534Z,33.96
2022-08-03T08:15:29.613Z,35.16
2022-08-03T08:18:32.647Z,35.56
2022-08-03T08:21:53.025Z,35.70
2022-08-03T08:25:04.388Z,36.06
2022-08-03T08:28:30.807Z,34.94
2022-08-03T08:31:30.318Z,35.16
2022-08-03T08:34:33.268Z,35.61
2022-08-03T08:37:36.462Z,34.00
2022-08-03T08:40:40.506Z,33.31
2022-08-03T08:43:43.783Z,34.53
2022-08-03T08:46:48.128Z,34.24
2022-08-03T08:50:09.333Z,34.41
2022-08-03T08:53:18.330Z,33.74
2022-08-03T08:56:25.678Z,32.47
2022-08-03T08:59:48.373Z,32.48
2022-08-03T09:02:53.465Z,32.43
2022-08-03T09:05:56.705Z,32.50
2022-08-03T09:08:59.535Z,33.75
2022-08-03T09:12:35.081Z,30.94
2022-08-03T09:15:31.422Z,33.18
2022-08-03T09:18:34.350Z,31.21
2022-08-03T09:21:36.878Z,31.97
2022-08-03T09:25:22.786Z,29.34
2022-08-03T09:29:01.491Z,31.50
2022-08-03T09:31:46.989Z,32.33
2022-08-03T09:34:56.574Z,29.48
2022-08-03T09:38:14.330Z,30.53
2022-08-03T09:41:20.119Z,29.38
2022-08-03T09:44:34.395Z,30.43
2022-08-03T09:47:37.418Z,31.43
2022-08-03T09:51:12.898Z,30.68
2022-08-03T09:54:30.047Z,29.56
2022-08-03T09:57:33.170Z,29.31
2022-08-03T10:00:54.144Z,29.02
2022-08-03T10:04:04.483Z,28.26
2022-08-03T10:07:11.313Z,29.11
2022-08-03T10:10:30.821Z,28.49
2022-08-03T10:13:36.269Z,27.21
2022-08-03T10:16:40.582Z,29.80
2022-08-03T10:19:43.471Z,28.63
2022-08-03T10:22:47.803Z,28.46
2022-08-03T10:25:56.372Z,30.15
2022-08-03T10:29:02.975Z,30.14
2022-08-03T10:32:19.148Z,29.30
2022-08-03T10:35:23.831Z,28.79
2022-08-03T10:38:35.096Z,28.52
2022-08-03T10:41:40.892Z,27.35
2022-08-03T10:44:43.631Z,27.26
2022-08-03T10:47:48.369Z,31.26
2022-08-03T10:50:52.257Z,30.69
2022-08-03T10:53:55.850Z,31.55
2022-08-03T10:57:17.370Z,31.77
2022-08-03T11:00:24.060Z,33.29
2022-08-03T11:03:33.275Z,33.61
2022-08-03T11:06:37.427Z,30.08
2022-08-03T11:09:44.760Z,29.86
2022-08-03T11:12:48.214Z,31.21
2022-08-03T11:15:53.569Z,31.89
2022-08-03T11:19:08.841Z,30.11
2022-08-03T11:22:11.921Z,31.75
2022-08-03T11:25:54.182Z,32.77
2022-08-03T11:28:44.819Z,33.62
2022-08-03T11:31:50.223Z,33.15
2022-08-03T11:35:10.393Z,33.59
2022-08-03T11:38:13.496Z,31.44
2022-08-03T11:41:44.799Z,30.29
2022-08-03T11:44:54.292Z,29.57
2022-08-03T11:48:00.787Z,29.43
2022-08-03T11:51:18.650Z,27.82
2022-08-03T11:54:22.802Z,28.08
2022-08-03T11:59:17.367Z,28.11
2022-08-03T12:01:07.783Z,27.20
2022-08-03T12:04:14.210Z,28.22
2022-08-03T12:08:02.407Z,25.15
2022-08-03T12:10:48.373Z,26.22
2022-08-03T12:14:43.924Z,28.77
2022-08-03T12:17:16.912Z,27.08
2022-08-03T12:20:34.430Z,28.97
2022-08-03T12:23:39.958Z,28.76
2022-08-03T12:26:58.408Z,29.74
2022-08-03T12:30:03.442Z,28.66
2022-08-03T12:33:14.305Z,29.78
2022-08-03T12:36:17.306Z,30.59
2022-08-03T12:39:24.720Z,30.55
2022-08-03T12:42:35.319Z,30.12
2022-08-03T12:45:38.271Z,30.33
2022-08-03T12:49:01.911Z,30.77
2022-08-03T12:52:07.636Z,31.27
2022-08-03T12:55:20.909Z,31.28
2022-08-03T12:58:39.678Z,31.29
2022-08-03T13:01:54.800Z,31.00
2022-08-03T13:04:59.426Z,31.29
2022-08-03T13:08:02.569Z,30.17
2022-08-03T13:11:55.629Z,30.42
2022-08-03T13:14:57.414Z,29.67
2022-08-03T13:18:00.124Z,30.42
2022-08-03T13:21:03.748Z,30.63
2022-08-03T13:24:06.885Z,30.36
2022-08-03T13:28:02.335Z,30.63
2022-08-03T13:30:37.673Z,30.15
2022-08-03T13:33:41.035Z,31.21
2022-08-03T13:37:07.963Z,30.34
2022-08-03T13:40:08.511Z,30.60
2022-08-03T13:43:14.567Z,30.32
2022-08-03T13:46:17.978Z,30.10
2022-08-03T13:49:20.611Z,30.30
2022-08-03T13:52:27.247Z,30.37
2022-08-03T13:55:30.079Z,30.52
2022-08-03T13:58:33.771Z,30.38
2022-08-03T14:01:54.143Z,30.19
2022-08-03T14:04:58.014Z,29.24
2022-08-03T14:08:05.367Z,30.04
2022-08-03T14:11:08.801Z,28.99
2022-08-03T14:14:15.133Z,29.37
2022-08-03T14:17:18.409Z,29.56
2022-08-03T14:20:36.598Z,29.43
2022-08-03T14:23:42.612Z,29.98
2022-08-03T14:26:47.405Z,29.91
2022-08-03T14:29:51.448Z,29.62
2022-08-03T14:32:56.873Z,29.77
2022-08-03T14:36:03.659Z,29.54
2022-08-03T14:39:09.452Z,29.30
2022-08-03T14:42:12.489Z,29.46
2022-08-03T14:45:20.528Z,29.87
2022-08-03T14:50:32.311Z,30.02
2022-08-03T14:51:53.617Z,29.45
2022-08-03T14:54:57.486Z,29.00
2022-08-03T14:58:02.939Z,29.75
2022-08-03T15:02:04.438Z,29.13
2022-08-03T15:04:34.889Z,28.70
2022-08-03T15:07:40.547Z,28.62
2022-08-03T15:10:45.300Z,29.53
2022-08-03T15:13:52.387Z,29.47
2022-08-03T15:16:54.987Z,29.20
2022-08-03T15:20:00.984Z,29.83
2022-08-03T15:23:08.647Z,29.57
2022-08-03T15:26:33.875Z,28.50
2022-08-03T15:30:06.832Z,27.89
2022-08-03T15:32:59.502Z,28.79
2022-08-03T15:36:02.239Z,28.55
2022-08-03T15:39:06.377Z,29.98
2022-08-03T15:42:09.505Z,30.22
2022-08-03T15:45:12.855Z,30.01
2022-08-03T15:48:18.183Z,30.08
2022-08-03T15:51:21.438Z,30.25
2022-08-03T15:54:24.651Z,30.18
2022-08-03T15:57:27.985Z,30.12
2022-08-03T16:00:33.285Z,30.79
2022-08-03T16:03:37.734Z,30.27
2022-08-03T16:06:40.961Z,30.24
2022-08-03T16:09:44.384Z,30.28
2022-08-03T16:12:48.161Z,29.66
2022-08-03T16:15:52.056Z,29.26
2022-08-03T16:18:54.837Z,28.98
2022-08-03T16:21:57.924Z,28.49
2022-08-03T16:25:01.704Z,28.45
2022-08-03T16:28:13.185Z,28.71
2022-08-03T16:31:16.770Z,28.55
2022-08-03T16:34:21.106Z,29.09
2022-08-03T16:37:38.057Z,28.19
2022-08-03T16:40:42.541Z,29.58
2022-08-03T16:43:45.385Z,29.53
2022-08-03T16:46:48.226Z,28.23
2022-08-03T16:49:52.851Z,28.51
2022-08-03T16:53:09.344Z,28.90
2022-08-03T16:56:12.639Z,29.14
2022-08-03T16:59:15.490Z,29.88
2022-08-03T17:02:26.154Z,29.35
2022-08-03T17:05:43.824Z,29.56
2022-08-03T17:08:55.217Z,30.33
2022-08-03T17:11:58.433Z,29.89
2022-08-03T17:15:05.066Z,30.11
2022-08-03T17:18:17.977Z,30.06
2022-08-03T17:21:34.702Z,30.56
2022-08-03T17:24:42.235Z,31.03
2022-08-03T17:28:48.394Z,31.44
2022-08-03T17:31:23.467Z,31.51
2022-08-03T17:34:34.277Z,31.66
2022-08-03T17:37:57.762Z,31.86
2022-08-03T17:41:01.382Z,31.60
2022-08-03T17:44:34.649Z,31.68
2022-08-03T17:47:41.490Z,32.81
2022-08-03T17:51:11.491Z,33.45
2022-08-03T17:55:56.494Z,33.04
2022-08-03T17:58:28.141Z,34.16
2022-08-03T18:02:29.927Z,34.33
2022-08-03T18:06:11.085Z,33.89
2022-08-03T18:12:28.231Z,34.94
2022-08-03T18:15:49.491Z,35.19
2022-08-03T18:18:57.350Z,35.26
2022-08-03T18:22:04.338Z,35.70
2022-08-03T18:25:08.941Z,35.87
2022-08-03T18:28:18.703Z,36.15
2022-08-03T18:31:59.668Z,35.67
2022-08-03T18:34:53.573Z,36.81
2022-08-03T18:37:59.054Z,37.56
2022-08-03T18:41:13.241Z,37.97
2022-08-03T18:44:53.577Z,37.86
2022-08-03T18:47:52.496Z,38.45
2022-08-03T18:51:09.733Z,38.00
2022-08-03T18:54:51.027Z,38.51
2022-08-03T18:57:59.643Z,39.97
2022-08-03T19:01:59.160Z,40.50
2022-08-03T19:04:52.731Z,39.52
2022-08-03T19:07:59.984Z,40.06
2022-08-03T19:11:07.859Z,40.00
2022-08-03T19:14:14.270Z,40.37
2022-08-03T19:17:21.653Z,39.82
2022-08-03T19:20:31.393Z,38.97
2022-08-03T19:23:38.567Z,38.93
2022-08-03T19:26:48.578Z,39.12
2022-08-03T19:30:03.964Z,39.12
2022-08-03T19:33:19.121Z,39.38
2022-08-03T19:36:26.422Z,39.37
2022-08-03T19:39:31.872Z,39.19
2022-08-03T19:42:40.904Z,39.41
2022-08-03T19:46:06.310Z,39.34
2022-08-03T19:49:16.245Z,40.02
2022-08-03T19:52:24.152Z,40.80
2022-08-03T19:55:34.191Z,40.02
2022-08-03T19:58:37.418Z,40.35
2022-08-03T20:01:50.598Z,41.58
2022-08-03T20:04:55.910Z,41.69
2022-08-03T20:08:05.367Z,41.32
2022-08-03T20:11:10.557Z,41.58
2022-08-03T20:14:20.823Z,41.70
2022-08-03T20:17:54.555Z,42.67
2022-08-03T20:20:54.545Z,44.54
2022-08-03T20:24:24.488Z,44.27
2022-08-03T20:27:35.157Z,45.06
2022-08-03T20:30:59.937Z,44.48
2022-08-03T20:34:03.175Z,45.62
2022-08-03T20:37:09.600Z,45.38
2022-08-03T20:40:15.117Z,46.02
2022-08-03T20:43:19.855Z,45.87
2022-08-03T20:46:31.963Z,45.00
2022-08-03T20:49:45.929Z,45.73
2022-08-03T20:52:49.411Z,45.70
2022-08-03T20:56:02.109Z,46.23
2022-08-03T20:59:07.239Z,47.05
2022-08-03T21:02:29.925Z,47.91
2022-08-03T21:05:51.567Z,48.05
2022-08-03T21:09:04.234Z,48.61
2022-08-03T21:12:12.077Z,48.77
2022-08-03T21:13:05.867Z,34.06
2022-08-03T21:16:02.368Z,48.73
2022-08-03T21:18:47.187Z,48.91
2022-08-03T21:21:52.158Z,49.43
2022-08-03T21:24:57.695Z,49.66
2022-08-03T21:28:01.769Z,49.58
2022-08-03T21:31:04.882Z,50.22
2022-08-03T21:34:08.423Z,50.38
2022-08-03T21:37:14.422Z,49.97
2022-08-03T21:40:19.054Z,50.25
2022-08-03T21:43:21.987Z,50.05
2022-08-03T21:46:26.815Z,49.77
2022-08-03T21:50:04.247Z,50.65
2022-08-03T21:52:59.034Z,51.34
2022-08-03T21:56:08.514Z,51.70
2022-08-03T21:59:18.112Z,52.02
2022-08-03T22:02:27.216Z,52.49
2022-08-03T22:05:43.687Z,52.80
2022-08-03T22:08:48.843Z,53.01
2022-08-03T22:11:54.265Z,52.47
2022-08-03T22:15:00.520Z,52.89
2022-08-03T22:18:05.204Z,53.35
2022-08-03T22:21:11.756Z,53.16
2022-08-03T22:24:18.434Z,53.40
2022-08-03T22:27:34.165Z,54.07
2022-08-03T22:30:38.053Z,53.96
2022-08-03T22:33:42.220Z,53.89
2022-08-03T22:36:45.254Z,53.11
2022-08-03T22:39:47.905Z,52.58
2022-08-03T22:42:55.023Z,52.76
2022-08-03T22:46:09.864Z,52.67
2022-08-03T22:49:16.748Z,52.50
2022-08-03T22:52:20.281Z,53.14
2022-08-03T22:55:25.096Z,52.93
2022-08-03T22:58:27.964Z,53.53
2022-08-03T23:01:37.250Z,54.53
2022-08-03T23:04:42.292Z,55.03
2022-08-03T23:07:45.768Z,54.80
2022-08-03T23:10:50.196Z,55.05
2022-08-03T23:13:56.635Z,55.03
2022-08-03T23:17:04.333Z,55.65
2022-08-03T23:20:09.663Z,55.81
2022-08-03T23:23:12.835Z,55.92
2022-08-03T23:26:20.194Z,56.22
2022-08-03T23:29:24.006Z,56.63
2022-08-03T23:32:29.190Z,55.81
2022-08-03T23:36:29.638Z,55.45
2022-08-03T23:39:16.384Z,54.74
2022-08-03T23:42:21.123Z,55.42
2022-08-03T23:45:27.617Z,52.79
2022-08-03T23:48:30.925Z,52.94
2022-08-03T23:51:53.471Z,53.79
2022-08-03T23:55:20.702Z,54.02
2022-08-03T23:58:58.129Z,54.20
